sensor_id;sensor_type;location;lat;lon;timestamp;pressure;altitude;pressure_sealevel;temperature;humidity
69027;BME280;56080;47.594;19.116;2022-09-20T00:02:52;100233;;;11.03;88.54
69027;BME280;56080;47.594;19.116;2022-09-20T00:07:52;100225;;;10.97;88.60
69027;BME280;56080;47.594;19.116;2022-09-20T00:12:52;100223;;;11.03;88.30
69027;BME280;56080;47.594;19.116;2022-09-20T00:17:52;100221;;;11.01;87.81
69027;BME280;56080;47.594;19.116;2022-09-20T00:22:52;100221;;;11.02;87.77
69027;BME280;56080;47.594;19.116;2022-09-20T00:27:52;100219;;;11.04;87.91
69027;BME280;56080;47.594;19.116;2022-09-20T00:32:52;100222;;;10.98;88.07
69027;BME280;56080;47.594;19.116;2022-09-20T00:37:52;100217;;;10.90;87.29
69027;BME280;56080;47.594;19.116;2022-09-20T00:42:52;100219;;;10.92;87.37
69027;BME280;56080;47.594;19.116;2022-09-20T00:47:56;100222;;;10.80;86.41
69027;BME280;56080;47.594;19.116;2022-09-20T00:52:55;100222;;;10.82;86.50
69027;BME280;56080;47.594;19.116;2022-09-20T00:57:52;100220;;;10.77;87.23
69027;BME280;56080;47.594;19.116;2022-09-20T01:02:53;100218;;;10.85;86.09
69027;BME280;56080;47.594;19.116;2022-09-20T01:07:52;100208;;;10.86;84.66
69027;BME280;56080;47.594;19.116;2022-09-20T01:12:52;100207;;;10.90;83.62
69027;BME280;56080;47.594;19.116;2022-09-20T01:17:53;100197;;;10.94;82.47
69027;BME280;56080;47.594;19.116;2022-09-20T01:27:52;100210;;;11.09;81.37
69027;BME280;56080;47.594;19.116;2022-09-20T01:32:59;100212;;;11.05;82.50
69027;BME280;56080;47.594;19.116;2022-09-20T01:43:12;100215;;;10.91;83.52
69027;BME280;56080;47.594;19.116;2022-09-20T01:48:11;100213;;;10.90;83.73
69027;BME280;56080;47.594;19.116;2022-09-20T02:07:59;100187;;;10.74;83.32
69027;BME280;56080;47.594;19.116;2022-09-20T02:18:02;100199;;;10.66;84.52
69027;BME280;56080;47.594;19.116;2022-09-20T02:28:12;100197;;;10.42;86.40
69027;BME280;56080;47.594;19.116;2022-09-20T02:42:57;100209;;;10.44;85.74
69027;BME280;56080;47.594;19.116;2022-09-20T02:47:52;100208;;;10.45;85.77
69027;BME280;56080;47.594;19.116;2022-09-20T02:52:57;100207;;;10.46;85.58
69027;BME280;56080;47.594;19.116;2022-09-20T03:42:53;100241;;;10.23;86.90
69027;BME280;56080;47.594;19.116;2022-09-20T04:18:11;100270;;;10.38;86.41
69027;BME280;56080;47.594;19.116;2022-09-20T04:22:53;100270;;;10.41;86.05
69027;BME280;56080;47.594;19.116;2022-09-20T04:27:54;100266;;;10.34;86.03
69027;BME280;56080;47.594;19.116;2022-09-20T04:37:52;100260;;;10.20;86.17
69027;BME280;56080;47.594;19.116;2022-09-20T04:53:13;100284;;;10.03;86.67
69027;BME280;56080;47.594;19.116;2022-09-20T05:12:56;100274;;;10.08;85.40
69027;BME280;56080;47.594;19.116;2022-09-20T05:18:16;100277;;;10.18;84.85
69027;BME280;56080;47.594;19.116;2022-09-20T05:42:57;100289;;;10.44;84.31
69027;BME280;56080;47.594;19.116;2022-09-20T05:58:02;100307;;;10.74;83.45
69027;BME280;56080;47.594;19.116;2022-09-20T06:18:05;100311;;;11.02;82.50
69027;BME280;56080;47.594;19.116;2022-09-20T06:22:53;100314;;;11.10;82.13
69027;BME280;56080;47.594;19.116;2022-09-20T06:27:54;100314;;;11.26;81.76
69027;BME280;56080;47.594;19.116;2022-09-20T06:32:55;100313;;;11.30;80.91
69027;BME280;56080;47.594;19.116;2022-09-20T06:42:53;100306;;;11.29;80.76
69027;BME280;56080;47.594;19.116;2022-09-20T06:47:52;100309;;;11.40;80.21
69027;BME280;56080;47.594;19.116;2022-09-20T06:52:54;100307;;;11.46;79.53
69027;BME280;56080;47.594;19.116;2022-09-20T06:57:52;100314;;;11.59;78.65
69027;BME280;56080;47.594;19.116;2022-09-20T07:02:55;100323;;;11.83;77.98
69027;BME280;56080;47.594;19.116;2022-09-20T07:07:56;100329;;;11.91;76.93
69027;BME280;56080;47.594;19.116;2022-09-20T07:12:54;100333;;;11.97;76.29
69027;BME280;56080;47.594;19.116;2022-09-20T07:17:52;100343;;;12.04;76.00
69027;BME280;56080;47.594;19.116;2022-09-20T07:22:52;100346;;;12.14;75.55
69027;BME280;56080;47.594;19.116;2022-09-20T07:27:52;100343;;;12.03;74.33
69027;BME280;56080;47.594;19.116;2022-09-20T07:32:52;100341;;;12.10;74.20
69027;BME280;56080;47.594;19.116;2022-09-20T07:37:56;100344;;;12.22;73.88
69027;BME280;56080;47.594;19.116;2022-09-20T07:42:56;100345;;;12.34;74.08
69027;BME280;56080;47.594;19.116;2022-09-20T07:52:54;100360;;;12.37;73.28
69027;BME280;56080;47.594;19.116;2022-09-20T07:57:54;100365;;;12.42;72.32
69027;BME280;56080;47.594;19.116;2022-09-20T08:02:56;100365;;;12.72;72.12
69027;BME280;56080;47.594;19.116;2022-09-20T08:07:53;100364;;;13.42;68.88
69027;BME280;56080;47.594;19.116;2022-09-20T08:13:02;100365;;;14.25;66.72
69027;BME280;56080;47.594;19.116;2022-09-20T08:17:52;100376;;;14.97;63.68
69027;BME280;56080;47.594;19.116;2022-09-20T08:23:03;100379;;;14.37;64.67
69027;BME280;56080;47.594;19.116;2022-09-20T08:27:52;100380;;;14.20;64.56
69027;BME280;56080;47.594;19.116;2022-09-20T08:32:54;100377;;;13.84;66.06
69027;BME280;56080;47.594;19.116;2022-09-20T08:37:54;100391;;;14.06;65.83
69027;BME280;56080;47.594;19.116;2022-09-20T08:42:53;100390;;;15.46;62.08
69027;BME280;56080;47.594;19.116;2022-09-20T08:47:59;100384;;;15.82;58.90
69027;BME280;56080;47.594;19.116;2022-09-20T08:52:54;100379;;;16.21;57.30
69027;BME280;56080;47.594;19.116;2022-09-20T08:57:53;100380;;;16.33;56.20
69027;BME280;56080;47.594;19.116;2022-09-20T09:02:53;100380;;;15.37;58.80
69027;BME280;56080;47.594;19.116;2022-09-20T09:07:52;100381;;;15.17;59.46
69027;BME280;56080;47.594;19.116;2022-09-20T09:12:52;100374;;;16.05;57.32
69027;BME280;56080;47.594;19.116;2022-09-20T09:17:52;100369;;;15.61;58.08
69027;BME280;56080;47.594;19.116;2022-09-20T09:23:01;100372;;;14.85;60.82
69027;BME280;56080;47.594;19.116;2022-09-20T09:33:13;100366;;;16.63;56.96
69027;BME280;56080;47.594;19.116;2022-09-20T09:37:53;100365;;;16.38;55.80
69027;BME280;56080;47.594;19.116;2022-09-20T09:42:54;100361;;;16.53;56.25
69027;BME280;56080;47.594;19.116;2022-09-20T09:47:54;100358;;;16.44;55.84
69027;BME280;56080;47.594;19.116;2022-09-20T09:52:56;100356;;;15.95;57.32
69027;BME280;56080;47.594;19.116;2022-09-20T09:57:56;100361;;;15.31;58.76
69027;BME280;56080;47.594;19.116;2022-09-20T10:43:06;100349;;;15.66;58.41
69027;BME280;56080;47.594;19.116;2022-09-20T10:47:59;100335;;;15.67;57.23
69027;BME280;56080;47.594;19.116;2022-09-20T10:53:01;100345;;;15.59;57.50
69027;BME280;56080;47.594;19.116;2022-09-20T11:07:58;100332;;;15.46;57.87
69027;BME280;56080;47.594;19.116;2022-09-20T11:17:56;100328;;;15.20;58.49
69027;BME280;56080;47.594;19.116;2022-09-20T11:22:56;100323;;;15.04;58.95
69027;BME280;56080;47.594;19.116;2022-09-20T11:27:54;100322;;;15.15;59.18
69027;BME280;56080;47.594;19.116;2022-09-20T11:32:55;100314;;;15.41;59.23
69027;BME280;56080;47.594;19.116;2022-09-20T11:38:11;100310;;;15.66;59.36
69027;BME280;56080;47.594;19.116;2022-09-20T11:42:52;100309;;;15.90;58.57
69027;BME280;56080;47.594;19.116;2022-09-20T11:47:57;100308;;;16.07;58.40
69027;BME280;56080;47.594;19.116;2022-09-20T11:52:59;100299;;;16.20;57.82
69027;BME280;56080;47.594;19.116;2022-09-20T12:02:53;100293;;;15.92;57.88
69027;BME280;56080;47.594;19.116;2022-09-20T12:07:54;100289;;;16.03;58.05
69027;BME280;56080;47.594;19.116;2022-09-20T12:12:57;100293;;;15.84;57.52
69027;BME280;56080;47.594;19.116;2022-09-20T12:23:00;100282;;;15.69;57.04
69027;BME280;56080;47.594;19.116;2022-09-20T12:32:54;100289;;;15.67;56.57
69027;BME280;56080;47.594;19.116;2022-09-20T12:37:53;100284;;;15.68;57.37
69027;BME280;56080;47.594;19.116;2022-09-20T12:42:54;100280;;;15.72;56.93
69027;BME280;56080;47.594;19.116;2022-09-20T12:47:53;100286;;;15.64;54.93
69027;BME280;56080;47.594;19.116;2022-09-20T12:52:55;100284;;;15.42;56.19
69027;BME280;56080;47.594;19.116;2022-09-20T12:57:54;100283;;;15.33;57.21
69027;BME280;56080;47.594;19.116;2022-09-20T13:07:53;100287;;;15.26;60.29
69027;BME280;56080;47.594;19.116;2022-09-20T13:12:58;100289;;;14.99;62.68
69027;BME280;56080;47.594;19.116;2022-09-20T13:17:53;100291;;;14.91;63.16
69027;BME280;56080;47.594;19.116;2022-09-20T13:22:58;100279;;;14.92;62.43
69027;BME280;56080;47.594;19.116;2022-09-20T13:32:54;100286;;;14.87;62.76
69027;BME280;56080;47.594;19.116;2022-09-20T13:37:57;100280;;;15.00;62.40
69027;BME280;56080;47.594;19.116;2022-09-20T13:42:54;100282;;;15.15;62.92
69027;BME280;56080;47.594;19.116;2022-09-20T13:47:54;100281;;;15.19;63.25
69027;BME280;56080;47.594;19.116;2022-09-20T13:52:54;100280;;;15.14;62.70
69027;BME280;56080;47.594;19.116;2022-09-20T13:57:53;100284;;;15.51;62.52
69027;BME280;56080;47.594;19.116;2022-09-20T14:02:53;100281;;;15.56;57.64
69027;BME280;56080;47.594;19.116;2022-09-20T14:07:53;100284;;;15.74;56.19
69027;BME280;56080;47.594;19.116;2022-09-20T14:12:53;100292;;;15.84;56.40
69027;BME280;56080;47.594;19.116;2022-09-20T14:17:54;100293;;;15.92;56.14
69027;BME280;56080;47.594;19.116;2022-09-20T14:22:59;100301;;;15.88;56.67
69027;BME280;56080;47.594;19.116;2022-09-20T14:32:53;100298;;;15.52;55.32
69027;BME280;56080;47.594;19.116;2022-09-20T14:42:55;100310;;;15.11;56.01
69027;BME280;56080;47.594;19.116;2022-09-20T14:57:57;100316;;;15.13;55.78
69027;BME280;56080;47.594;19.116;2022-09-20T15:02:53;100315;;;15.06;55.96
69027;BME280;56080;47.594;19.116;2022-09-20T15:07:53;100320;;;14.93;56.71
69027;BME280;56080;47.594;19.116;2022-09-20T15:12:52;100329;;;14.75;57.54
69027;BME280;56080;47.594;19.116;2022-09-20T15:17:53;100332;;;14.60;58.36
69027;BME280;56080;47.594;19.116;2022-09-20T15:22:53;100342;;;14.58;59.72
69027;BME280;56080;47.594;19.116;2022-09-20T15:27:53;100338;;;14.48;59.70
69027;BME280;56080;47.594;19.116;2022-09-20T15:32:53;100347;;;14.23;60.05
69027;BME280;56080;47.594;19.116;2022-09-20T15:37:53;100351;;;14.14;60.79
69027;BME280;56080;47.594;19.116;2022-09-20T15:42:54;100352;;;13.90;62.16
69027;BME280;56080;47.594;19.116;2022-09-20T15:47:54;100351;;;13.83;63.41
69027;BME280;56080;47.594;19.116;2022-09-20T15:52:58;100358;;;13.88;64.11
69027;BME280;56080;47.594;19.116;2022-09-20T15:57:53;100359;;;13.77;65.24
69027;BME280;56080;47.594;19.116;2022-09-20T16:02:53;100368;;;13.72;66.22
69027;BME280;56080;47.594;19.116;2022-09-20T16:07:53;100370;;;13.68;67.05
69027;BME280;56080;47.594;19.116;2022-09-20T16:12:53;100374;;;13.65;67.61
69027;BME280;56080;47.594;19.116;2022-09-20T16:18:02;100381;;;13.70;67.96
69027;BME280;56080;47.594;19.116;2022-09-20T16:22:53;100384;;;13.75;68.27
69027;BME280;56080;47.594;19.116;2022-09-20T16:27:52;100379;;;13.58;69.52
69027;BME280;56080;47.594;19.116;2022-09-20T16:32:54;100388;;;13.52;70.13
69027;BME280;56080;47.594;19.116;2022-09-20T16:37:53;100384;;;13.36;71.33
69027;BME280;56080;47.594;19.116;2022-09-20T16:42:55;100380;;;13.29;72.47
69027;BME280;56080;47.594;19.116;2022-09-20T16:47:56;100384;;;13.22;72.67
69027;BME280;56080;47.594;19.116;2022-09-20T16:57:53;100386;;;13.21;72.57
69027;BME280;56080;47.594;19.116;2022-09-20T17:02:53;100387;;;13.08;73.16
69027;BME280;56080;47.594;19.116;2022-09-20T17:07:53;100387;;;13.04;73.17
69027;BME280;56080;47.594;19.116;2022-09-20T17:12:56;100387;;;12.84;73.98
69027;BME280;56080;47.594;19.116;2022-09-20T17:17:53;100388;;;12.93;74.14
69027;BME280;56080;47.594;19.116;2022-09-20T17:22:53;100393;;;12.87;73.50
69027;BME280;56080;47.594;19.116;2022-09-20T17:27:53;100395;;;12.75;73.13
69027;BME280;56080;47.594;19.116;2022-09-20T17:32:53;100402;;;12.70;73.38
69027;BME280;56080;47.594;19.116;2022-09-20T17:37:53;100398;;;12.60;73.50
69027;BME280;56080;47.594;19.116;2022-09-20T17:42:53;100408;;;12.69;73.98
69027;BME280;56080;47.594;19.116;2022-09-20T17:47:53;100417;;;12.58;74.27
69027;BME280;56080;47.594;19.116;2022-09-20T17:52:53;100426;;;12.45;73.11
69027;BME280;56080;47.594;19.116;2022-09-20T17:57:53;100427;;;12.35;73.61
69027;BME280;56080;47.594;19.116;2022-09-20T18:02:53;100430;;;12.39;72.84
69027;BME280;56080;47.594;19.116;2022-09-20T18:07:53;100438;;;12.25;72.13
69027;BME280;56080;47.594;19.116;2022-09-20T18:12:53;100441;;;12.27;72.24
69027;BME280;56080;47.594;19.116;2022-09-20T18:17:55;100447;;;12.19;72.03
69027;BME280;56080;47.594;19.116;2022-09-20T18:22:53;100448;;;12.10;71.70
69027;BME280;56080;47.594;19.116;2022-09-20T18:27:53;100455;;;12.04;71.52
69027;BME280;56080;47.594;19.116;2022-09-20T18:32:53;100460;;;11.95;72.02
69027;BME280;56080;47.594;19.116;2022-09-20T18:37:53;100458;;;11.93;72.38
69027;BME280;56080;47.594;19.116;2022-09-20T18:42:55;100466;;;11.83;72.76
69027;BME280;56080;47.594;19.116;2022-09-20T18:47:56;100470;;;11.76;72.10
69027;BME280;56080;47.594;19.116;2022-09-20T18:52:53;100470;;;11.81;72.36
69027;BME280;56080;47.594;19.116;2022-09-20T18:57:53;100475;;;11.75;72.86
69027;BME280;56080;47.594;19.116;2022-09-20T19:03:01;100473;;;11.67;73.58
69027;BME280;56080;47.594;19.116;2022-09-20T19:12:58;100475;;;11.60;73.35
69027;BME280;56080;47.594;19.116;2022-09-20T19:18:01;100474;;;11.66;72.96
69027;BME280;56080;47.594;19.116;2022-09-20T19:27:53;100474;;;11.57;72.45
69027;BME280;56080;47.594;19.116;2022-09-20T19:32:53;100477;;;11.63;72.27
69027;BME280;56080;47.594;19.116;2022-09-20T19:42:57;100483;;;11.40;73.86
69027;BME280;56080;47.594;19.116;2022-09-20T19:47:56;100488;;;11.31;74.39
69027;BME280;56080;47.594;19.116;2022-09-20T19:52:53;100489;;;11.24;74.81
69027;BME280;56080;47.594;19.116;2022-09-20T19:57:53;100498;;;11.15;75.28
69027;BME280;56080;47.594;19.116;2022-09-20T20:02:53;100506;;;10.96;76.26
69027;BME280;56080;47.594;19.116;2022-09-20T20:17:56;100511;;;10.87;77.21
69027;BME280;56080;47.594;19.116;2022-09-20T20:27:53;100525;;;10.79;77.77
69027;BME280;56080;47.594;19.116;2022-09-20T20:32:54;100527;;;10.96;77.19
69027;BME280;56080;47.594;19.116;2022-09-20T20:37:53;100528;;;10.80;77.92
69027;BME280;56080;47.594;19.116;2022-09-20T20:42:54;100536;;;10.89;78.01
69027;BME280;56080;47.594;19.116;2022-09-20T20:47:55;100537;;;10.91;78.04
69027;BME280;56080;47.594;19.116;2022-09-20T20:52:53;100537;;;10.90;78.01
69027;BME280;56080;47.594;19.116;2022-09-20T20:57:57;100544;;;10.79;78.54
69027;BME280;56080;47.594;19.116;2022-09-20T21:02:55;100546;;;10.71;79.19
69027;BME280;56080;47.594;19.116;2022-09-20T21:07:54;100557;;;10.66;79.67
69027;BME280;56080;47.594;19.116;2022-09-20T21:12:53;100554;;;10.51;80.29
69027;BME280;56080;47.594;19.116;2022-09-20T21:17:53;100555;;;10.48;80.76
69027;BME280;56080;47.594;19.116;2022-09-20T21:22:54;100554;;;10.36;81.57
69027;BME280;56080;47.594;19.116;2022-09-20T21:27:53;100557;;;10.42;81.15
69027;BME280;56080;47.594;19.116;2022-09-20T21:37:55;100560;;;10.41;81.43
69027;BME280;56080;47.594;19.116;2022-09-20T21:42:54;100567;;;10.14;82.63
69027;BME280;56080;47.594;19.116;2022-09-20T21:47:53;100564;;;10.24;81.97
69027;BME280;56080;47.594;19.116;2022-09-20T21:52:53;100572;;;10.18;82.56
69027;BME280;56080;47.594;19.116;2022-09-20T21:57:53;100577;;;9.84;83.53
69027;BME280;56080;47.594;19.116;2022-09-20T22:02:58;100580;;;9.73;84.31
69027;BME280;56080;47.594;19.116;2022-09-20T22:07:53;100583;;;9.72;84.88
69027;BME280;56080;47.594;19.116;2022-09-20T22:12:53;100589;;;9.76;84.62
69027;BME280;56080;47.594;19.116;2022-09-20T22:17:54;100583;;;9.84;84.31
69027;BME280;56080;47.594;19.116;2022-09-20T22:22:53;100589;;;9.76;84.41
69027;BME280;56080;47.594;19.116;2022-09-20T22:27:53;100588;;;9.59;85.09
69027;BME280;56080;47.594;19.116;2022-09-20T22:32:53;100590;;;9.39;86.02
69027;BME280;56080;47.594;19.116;2022-09-20T22:42:54;100594;;;9.47;85.60
69027;BME280;56080;47.594;19.116;2022-09-20T22:47:53;100594;;;9.36;86.44
69027;BME280;56080;47.594;19.116;2022-09-20T22:52:53;100588;;;9.22;86.91
69027;BME280;56080;47.594;19.116;2022-09-20T22:57:53;100588;;;9.21;87.02
69027;BME280;56080;47.594;19.116;2022-09-20T23:02:54;100587;;;9.31;86.72
69027;BME280;56080;47.594;19.116;2022-09-20T23:07:53;100587;;;9.37;86.19
69027;BME280;56080;47.594;19.116;2022-09-20T23:12:53;100585;;;9.41;86.62
69027;BME280;56080;47.594;19.116;2022-09-20T23:17:53;100584;;;9.46;86.42
69027;BME280;56080;47.594;19.116;2022-09-20T23:22:53;100584;;;9.40;86.51
69027;BME280;56080;47.594;19.116;2022-09-20T23:27:53;100588;;;9.35;87.08
69027;BME280;56080;47.594;19.116;2022-09-20T23:32:53;100587;;;9.53;86.57
69027;BME280;56080;47.594;19.116;2022-09-20T23:37:54;100592;;;9.75;86.12
69027;BME280;56080;47.594;19.116;2022-09-20T23:42:53;100594;;;9.77;86.00
69027;BME280;56080;47.594;19.116;2022-09-20T23:47:53;100600;;;9.73;86.12
69027;BME280;56080;47.594;19.116;2022-09-20T23:52:53;100597;;;9.70;86.05
69027;BME280;56080;47.594;19.116;2022-09-20T23:57:53;100596;;;9.81;85.94
